Time;durP1;ratioP1;P1;durP2;ratioP2;P2;SDS_P1;SDS_P2;PMS_P1;PMS_P2;Temp;Humidity;BMP_temperature;BMP_pressure;BME280_temperature;BME280_humidity;BME280_pressure;Samples;Min_cycle;Max_cycle;Signal;HPM_P1;HPM_P2
2022/09/10 00:01:44;;;;;;;4.57;1.70;;;22.80;70.10;;;;;;5023195;28;20025;-66
2022/09/10 00:04:10;;;;;;;5.20;1.80;;;22.80;70.00;;;;;;5025804;28;20068;-66
2022/09/10 00:06:37;;;;;;;4.40;1.70;;;22.80;70.00;;;;;;5024619;28;20405;-66
2022/09/10 00:09:03;;;;;;;5.00;1.65;;;22.80;69.90;;;;;;5025015;28;20030;-65
2022/09/10 00:11:30;;;;;;;6.55;1.90;;;22.80;69.90;;;;;;5022359;28;20117;-66
2022/09/10 00:14:00;;;;;;;5.57;1.60;;;22.80;70.00;;;;;;5024457;28;20395;-66
2022/09/10 00:16:26;;;;;;;7.97;1.73;;;22.80;69.90;;;;;;5022562;28;20041;-66
2022/09/10 00:18:52;;;;;;;4.85;1.60;;;22.80;69.90;;;;;;5029265;28;20037;-65
2022/09/10 00:21:19;;;;;;;5.20;1.70;;;22.70;69.90;;;;;;5047248;28;20488;-66
2022/09/10 00:23:45;;;;;;;5.65;1.65;;;22.70;69.80;;;;;;5044434;28;20025;-66
2022/09/10 00:26:26;;;;;;;3.47;1.60;;;22.70;69.70;;;;;;5044547;28;20032;-65
2022/09/10 00:28:53;;;;;;;3.83;1.67;;;22.70;69.70;;;;;;5043333;28;20025;-65
2022/09/10 00:31:20;;;;;;;4.50;1.65;;;22.70;69.70;;;;;;5042914;28;20036;-66
2022/09/10 00:33:46;;;;;;;4.07;1.38;;;22.70;69.70;;;;;;5043385;28;20033;-65
2022/09/10 00:36:20;;;;;;;3.53;1.40;;;22.70;69.70;;;;;;5044032;28;20025;-65
2022/09/10 00:38:46;;;;;;;5.75;1.70;;;22.70;69.60;;;;;;5036939;28;20025;-67
2022/09/10 00:41:13;;;;;;;5.68;1.67;;;22.70;69.70;;;;;;5041022;28;20445;-66
2022/09/10 00:43:59;;;;;;;3.95;1.58;;;22.60;69.60;;;;;;5046878;28;20033;-66
2022/09/10 00:46:42;;;;;;;4.43;1.40;;;22.70;69.60;;;;;;5044485;28;20105;-65
2022/09/10 00:49:32;;;;;;;4.20;1.60;;;22.60;69.60;;;;;;5043194;28;20493;-66
2022/09/10 00:51:58;;;;;;;4.45;1.40;;;22.60;69.50;;;;;;5025521;28;20107;-66
2022/09/10 00:54:24;;;;;;;4.03;1.50;;;22.60;69.50;;;;;;5043200;28;20548;-65
2022/09/10 00:56:50;;;;;;;2.92;1.33;;;22.60;69.50;;;;;;5026218;28;20032;-66
2022/09/10 00:59:17;;;;;;;4.65;1.80;;;22.60;69.40;;;;;;5027147;28;20043;-66
2022/09/10 01:01:43;;;;;;;3.75;1.50;;;22.60;69.40;;;;;;5023417;28;20033;-66
2022/09/10 01:04:09;;;;;;;4.57;1.60;;;22.60;69.40;;;;;;5022772;28;20520;-66
2022/09/10 01:06:36;;;;;;;3.08;1.45;;;22.60;69.40;;;;;;5046439;28;20036;-66
2022/09/10 01:09:02;;;;;;;3.83;1.50;;;22.60;69.40;;;;;;5042858;28;20031;-66
2022/09/10 01:11:48;;;;;;;4.43;1.70;;;22.60;69.40;;;;;;5041910;28;20029;-66
2022/09/10 01:14:58;;;;;;;3.92;1.70;;;22.60;69.40;;;;;;5040225;28;20107;-66
2022/09/10 01:17:53;;;;;;;6.53;1.70;;;22.50;69.30;;;;;;5036391;28;20041;-66
2022/09/10 01:21:01;;;;;;;4.32;1.38;;;22.50;69.30;;;;;;5003127;28;20060;-66
2022/09/10 01:24:02;;;;;;;3.08;1.30;;;22.60;69.40;;;;;;4988444;28;20033;-66
2022/09/10 01:26:49;;;;;;;2.83;1.40;;;22.60;69.30;;;;;;4991181;28;20904;-66
2022/09/10 01:29:45;;;;;;;4.82;1.40;;;22.50;69.20;;;;;;5000770;28;20044;-66
2022/09/10 01:32:14;;;;;;;4.95;1.65;;;22.50;69.30;;;;;;4988320;28;20057;-64
2022/09/10 01:34:44;;;;;;;4.07;1.48;;;22.50;69.30;;;;;;4983397;28;20038;-66
2022/09/10 01:37:20;;;;;;;5.82;1.70;;;22.50;69.30;;;;;;5002589;28;20049;-66
2022/09/10 01:39:46;;;;;;;3.88;1.52;;;22.50;69.30;;;;;;4971046;28;20517;-66
2022/09/10 01:42:11;;;;;;;4.53;1.50;;;22.50;69.20;;;;;;4970148;28;20026;-65
2022/09/10 01:44:58;;;;;;;3.83;1.45;;;22.50;69.20;;;;;;5002918;28;20042;-66
2022/09/10 01:47:27;;;;;;;3.45;1.30;;;22.40;69.10;;;;;;5001162;28;20030;-66
2022/09/10 01:50:08;;;;;;;4.97;1.50;;;22.50;69.30;;;;;;5001077;28;20069;-66
2022/09/10 01:52:41;;;;;;;3.92;1.50;;;22.40;69.10;;;;;;4983037;28;20048;-66
2022/09/10 01:55:33;;;;;;;3.97;1.40;;;22.40;69.10;;;;;;4987452;28;20542;-65
2022/09/10 01:58:33;;;;;;;3.00;1.40;;;22.40;69.10;;;;;;5034573;28;20040;-66
2022/09/10 02:01:18;;;;;;;4.38;1.52;;;22.50;69.20;;;;;;4978211;28;20034;-66
2022/09/10 02:03:45;;;;;;;;;;;22.40;69.10;;;;;;4981820;28;20030;-65
2022/09/10 02:06:13;;;;;;;4.05;1.45;;;22.40;69.10;;;;;;4965933;28;19937;-64
2022/09/10 02:08:40;;;;;;;3.00;1.23;;;22.40;69.10;;;;;;4948577;28;20055;-66
2022/09/10 02:11:08;;;;;;;4.18;1.48;;;22.40;69.10;;;;;;4966771;28;20038;-65
2022/09/10 02:13:34;;;;;;;4.57;1.50;;;22.40;69.10;;;;;;4965060;28;20186;-65
2022/09/10 02:16:05;;;;;;;3.45;1.50;;;22.40;69.10;;;;;;4949302;28;20578;-66
2022/09/10 02:18:31;;;;;;;4.07;1.60;;;22.40;70.10;;;;;;4966132;28;20065;-65
2022/09/10 02:20:57;;;;;;;3.67;1.45;;;22.40;69.10;;;;;;4969681;28;20113;-66
2022/09/10 02:23:30;;;;;;;4.57;1.20;;;22.40;70.10;;;;;;4985678;28;20125;-66
2022/09/10 02:25:56;;;;;;;3.42;1.63;;;22.40;69.10;;;;;;4958877;28;20090;-66
2022/09/10 02:28:22;;;;;;;4.15;1.45;;;22.40;69.10;;;;;;4953109;28;20099;-66
2022/09/10 02:30:47;;;;;;;4.00;1.52;;;22.40;69.10;;;;;;4970174;28;20099;-66
2022/09/10 02:33:15;;;;;;;2.47;1.23;;;22.40;69.10;;;;;;4985669;28;20029;-66
2022/09/10 02:35:42;;;;;;;2.95;1.23;;;22.30;69.00;;;;;;4985378;28;20032;-66
2022/09/10 02:38:07;;;;;;;3.08;1.40;;;22.40;69.10;;;;;;5027577;28;20033;-66
2022/09/10 02:40:33;;;;;;;3.17;1.30;;;22.30;69.00;;;;;;5048002;28;20076;-66
2022/09/10 02:42:59;;;;;;;4.65;1.60;;;22.30;69.00;;;;;;5046374;28;20029;-66
2022/09/10 02:45:25;;;;;;;4.43;1.48;;;22.30;69.00;;;;;;5046592;28;20393;-66
2022/09/10 02:47:50;;;;;;;4.03;1.35;;;22.30;69.00;;;;;;5047768;28;20480;-66
2022/09/10 02:50:16;;;;;;;3.72;1.35;;;22.30;69.00;;;;;;5044927;28;20199;-65
2022/09/10 02:52:44;;;;;;;3.28;1.17;;;22.30;69.00;;;;;;5044503;28;20037;-66
2022/09/10 02:55:11;;;;;;;3.53;1.42;;;22.30;69.00;;;;;;5045038;28;20056;-66
2022/09/10 02:57:38;;;;;;;2.03;1.20;;;22.30;69.00;;;;;;5046263;28;20040;-66
2022/09/10 03:00:04;;;;;;;4.57;1.48;;;22.30;69.00;;;;;;5047252;28;20106;-66
2022/09/10 03:02:30;;;;;;;2.63;1.17;;;22.30;69.00;;;;;;5044680;28;20178;-66
2022/09/10 03:04:56;;;;;;;3.08;1.30;;;22.30;69.00;;;;;;5046207;28;20690;-67
2022/09/10 03:07:21;;;;;;;4.28;1.40;;;22.20;68.90;;;;;;5046602;28;20798;-66
2022/09/10 03:09:48;;;;;;;3.90;1.48;;;22.20;69.00;;;;;;5047918;28;20411;-66
2022/09/10 03:12:15;;;;;;;2.60;1.20;;;22.20;69.00;;;;;;5048168;28;20063;-66
2022/09/10 03:14:41;;;;;;;5.10;1.23;;;22.30;69.10;;;;;;5044861;28;20024;-66
2022/09/10 03:17:07;;;;;;;2.05;1.30;;;22.20;69.00;;;;;;5045298;28;20854;-66
2022/09/10 03:19:33;;;;;;;3.80;1.40;;;22.20;69.00;;;;;;5047022;28;20405;-65
2022/09/10 03:21:58;;;;;;;3.20;1.20;;;22.20;69.00;;;;;;5044973;28;20026;-66
2022/09/10 03:24:24;;;;;;;3.05;1.20;;;22.20;69.00;;;;;;5046354;28;20033;-66
2022/09/10 03:26:50;;;;;;;4.38;1.40;;;22.20;69.00;;;;;;5048338;28;20104;-66
2022/09/10 03:29:16;;;;;;;2.90;1.13;;;22.20;69.00;;;;;;5045017;28;20029;-66
2022/09/10 03:31:43;;;;;;;3.88;1.20;;;22.20;69.00;;;;;;5027887;28;20065;-65
2022/09/10 03:34:10;;;;;;;2.83;1.20;;;22.20;69.10;;;;;;5044355;28;20032;-66
2022/09/10 03:36:35;;;;;;;4.03;1.40;;;22.20;69.10;;;;;;5047150;28;20048;-66
2022/09/10 03:39:01;;;;;;;3.13;1.30;;;22.10;69.00;;;;;;5044848;28;20043;-67
2022/09/10 03:41:27;;;;;;;2.75;1.23;;;22.10;69.00;;;;;;5044158;28;20029;-66
2022/09/10 03:43:53;;;;;;;3.88;1.30;;;22.10;69.00;;;;;;5046880;28;20032;-66
2022/09/10 03:46:20;;;;;;;2.33;1.20;;;22.10;69.00;;;;;;5044355;28;20120;-66
2022/09/10 03:48:46;;;;;;;4.30;1.20;;;22.10;69.00;;;;;;5046633;28;20548;-66
2022/09/10 03:51:11;;;;;;;3.17;1.30;;;22.10;69.00;;;;;;5045251;28;20052;-66
2022/09/10 03:53:37;;;;;;;2.75;1.30;;;22.10;69.10;;;;;;5046517;28;20025;-66
2022/09/10 03:56:03;;;;;;;2.78;1.20;;;22.10;69.00;;;;;;5042337;28;20031;-66
2022/09/10 03:58:30;;;;;;;2.47;1.25;;;22.10;69.00;;;;;;5046394;28;20033;-66
2022/09/10 04:00:56;;;;;;;3.10;1.10;;;22.10;69.00;;;;;;5042676;28;20029;-66
2022/09/10 04:03:21;;;;;;;4.57;1.40;;;22.10;69.00;;;;;;5045048;28;20082;-66
2022/09/10 04:05:47;;;;;;;2.13;1.20;;;22.10;69.10;;;;;;5046133;28;20032;-66
2022/09/10 04:08:13;;;;;;;2.03;1.10;;;22.00;69.00;;;;;;5045581;28;20033;-66
2022/09/10 04:10:39;;;;;;;2.72;1.20;;;22.10;69.00;;;;;;5045989;28;20025;-66
2022/09/10 04:13:05;;;;;;;4.60;1.33;;;22.00;69.10;;;;;;5043733;28;20037;-66
2022/09/10 04:15:31;;;;;;;4.10;1.23;;;22.00;69.00;;;;;;5045330;28;20075;-64
2022/09/10 04:17:57;;;;;;;1.73;1.00;;;22.00;69.00;;;;;;5043994;28;20064;-66
2022/09/10 04:20:23;;;;;;;2.97;1.27;;;22.00;69.00;;;;;;5044847;28;20083;-67
2022/09/10 04:22:50;;;;;;;3.65;1.33;;;22.00;69.10;;;;;;5045240;28;20557;-66
2022/09/10 04:25:16;;;;;;;3.75;1.30;;;22.00;69.10;;;;;;5043381;28;20085;-66
2022/09/10 04:27:42;;;;;;;2.58;1.10;;;22.00;69.10;;;;;;5046109;28;20451;-66
2022/09/10 04:30:08;;;;;;;2.88;1.10;;;22.00;69.10;;;;;;5049358;28;20063;-66
2022/09/10 04:32:34;;;;;;;3.25;1.20;;;22.00;69.10;;;;;;5044223;28;20416;-66
2022/09/10 04:35:03;;;;;;;2.88;1.30;;;22.00;69.10;;;;;;5026523;28;20025;-66
2022/09/10 04:37:29;;;;;;;3.03;1.02;;;22.00;69.10;;;;;;5047583;28;20139;-66
2022/09/10 04:39:55;;;;;;;2.08;1.05;;;22.00;69.10;;;;;;5040894;28;20030;-66
2022/09/10 04:42:20;;;;;;;2.85;1.20;;;22.00;69.10;;;;;;5026871;28;20052;-66
2022/09/10 04:44:46;;;;;;;3.28;1.08;;;22.00;69.10;;;;;;5042021;28;20252;-66
2022/09/10 04:47:12;;;;;;;3.58;1.10;;;22.00;69.20;;;;;;5043821;28;20150;-66
2022/09/10 04:49:38;;;;;;;3.90;1.23;;;21.90;69.00;;;;;;5047744;28;20067;-66
2022/09/10 04:52:04;;;;;;;3.33;1.08;;;21.90;69.00;;;;;;5042371;28;20555;-66
2022/09/10 04:54:32;;;;;;;3.95;1.40;;;22.00;69.10;;;;;;5042982;28;20021;-66
2022/09/10 04:56:59;;;;;;;2.97;1.13;;;21.90;69.10;;;;;;5042771;28;20087;-66
2022/09/10 04:59:28;;;;;;;3.28;1.13;;;21.90;69.10;;;;;;5044153;28;20029;-66
2022/09/10 05:02:07;;;;;;;2.05;1.20;;;21.90;69.10;;;;;;5043336;28;20104;-66
2022/09/10 05:04:36;;;;;;;3.58;1.10;;;21.90;69.10;;;;;;5041717;28;20116;-67
2022/09/10 05:07:02;;;;;;;3.88;1.27;;;21.90;69.10;;;;;;5039912;28;20025;-66
2022/09/10 05:09:30;;;;;;;1.80;1.00;;;21.90;69.10;;;;;;5038528;28;20036;-66
2022/09/10 05:11:56;;;;;;;4.40;1.15;;;21.90;69.10;;;;;;5045829;28;20044;-66
2022/09/10 05:14:22;;;;;;;2.85;1.30;;;21.90;69.10;;;;;;5047146;28;20032;-66
2022/09/10 05:16:48;;;;;;;2.20;1.10;;;21.80;69.10;;;;;;5041912;28;20026;-66
2022/09/10 05:19:16;;;;;;;2.63;1.30;;;21.90;69.10;;;;;;5046736;28;20505;-66
2022/09/10 05:21:45;;;;;;;1.73;1.10;;;21.80;69.10;;;;;;5043208;28;20099;-66
2022/09/10 05:24:11;;;;;;;1.85;1.00;;;21.80;69.10;;;;;;5049569;28;20037;-66
2022/09/10 05:26:36;;;;;;;2.58;1.10;;;21.80;69.10;;;;;;5042780;28;20026;-67
2022/09/10 05:29:02;;;;;;;2.42;1.10;;;21.80;69.10;;;;;;5046024;28;20033;-67
2022/09/10 05:31:28;;;;;;;2.22;1.30;;;21.80;69.10;;;;;;5045824;28;20040;-66
2022/09/10 05:34:00;;;;;;;2.05;1.05;;;21.80;69.10;;;;;;5045047;28;20393;-66
2022/09/10 05:36:30;;;;;;;2.30;1.08;;;21.80;69.10;;;;;;5042866;28;20037;-66
2022/09/10 05:38:57;;;;;;;2.85;1.10;;;21.80;69.10;;;;;;5025435;28;20117;-66
2022/09/10 05:41:22;;;;;;;2.15;1.02;;;21.80;69.10;;;;;;5044698;28;20037;-66
2022/09/10 05:43:48;;;;;;;2.15;0.93;;;21.80;69.20;;;;;;5046492;28;20054;-66
2022/09/10 05:46:14;;;;;;;2.53;1.23;;;21.80;69.10;;;;;;5045361;28;20397;-66
2022/09/10 05:48:40;;;;;;;1.52;0.90;;;21.80;69.10;;;;;;5047060;28;20025;-67
2022/09/10 05:51:06;;;;;;;2.03;1.08;;;21.80;69.10;;;;;;5042188;28;20119;-66
2022/09/10 05:53:32;;;;;;;1.85;1.00;;;21.80;69.10;;;;;;5043138;28;20037;-65
2022/09/10 05:55:58;;;;;;;2.85;1.13;;;21.70;69.10;;;;;;5030789;28;20028;-66
2022/09/10 05:58:25;;;;;;;1.65;0.90;;;21.70;69.10;;;;;;5045965;28;20053;-66
2022/09/10 06:00:50;;;;;;;3.20;1.15;;;21.80;69.20;;;;;;5048886;28;20025;-66
2022/09/10 06:03:18;;;;;;;2.70;1.20;;;21.70;69.10;;;;;;5047518;28;20036;-66
2022/09/10 06:05:50;;;;;;;2.25;1.02;;;21.70;69.10;;;;;;5045501;28;20493;-66
2022/09/10 06:08:22;;;;;;;2.13;1.00;;;21.70;69.10;;;;;;5049309;28;20025;-66
2022/09/10 06:10:57;;;;;;;3.47;1.27;;;21.70;69.10;;;;;;5046678;28;20382;-66
2022/09/10 06:13:23;;;;;;;2.28;1.13;;;21.70;69.10;;;;;;5045964;28;20095;-67
2022/09/10 06:15:49;;;;;;;1.83;1.05;;;21.70;69.10;;;;;;5052861;28;20051;-66
2022/09/10 06:18:14;;;;;;;2.00;1.05;;;21.70;69.20;;;;;;5048357;28;20029;-66
2022/09/10 06:20:40;;;;;;;1.90;0.98;;;21.70;69.20;;;;;;5050244;28;20102;-66
2022/09/10 06:23:06;;;;;;;2.22;1.00;;;21.70;69.20;;;;;;5044285;28;20112;-66
2022/09/10 06:25:31;;;;;;;2.00;1.00;;;21.70;70.20;;;;;;5047304;28;20048;-65
2022/09/10 06:27:57;;;;;;;2.10;1.02;;;21.70;69.20;;;;;;5042717;28;20032;-66
2022/09/10 06:30:22;;;;;;;2.35;1.02;;;21.70;69.10;;;;;;5045531;28;20026;-66
2022/09/10 06:32:48;;;;;;;2.38;1.10;;;21.70;69.10;;;;;;5051378;28;20029;-67
2022/09/10 06:35:14;;;;;;;2.35;1.20;;;21.60;69.10;;;;;;5049002;28;20025;-67
2022/09/10 06:37:40;;;;;;;1.73;0.90;;;21.70;69.20;;;;;;5046207;28;20111;-66
2022/09/10 06:40:06;;;;;;;2.25;1.00;;;21.70;69.20;;;;;;5049046;28;20075;-67
2022/09/10 06:42:31;;;;;;;2.30;1.10;;;21.60;69.10;;;;;;5045735;28;20056;-66
2022/09/10 06:44:58;;;;;;;2.13;1.00;;;21.70;69.20;;;;;;5046565;28;20037;-67
2022/09/10 06:47:25;;;;;;;1.67;0.90;;;21.60;69.10;;;;;;5046869;28;20040;-67
2022/09/10 06:49:51;;;;;;;1.90;1.00;;;21.60;69.10;;;;;;5052109;28;20028;-67
2022/09/10 06:52:17;;;;;;;2.08;0.90;;;21.60;69.10;;;;;;5031176;28;20056;-66
2022/09/10 06:54:42;;;;;;;1.60;1.00;;;21.60;69.10;;;;;;5028273;28;20013;-67
2022/09/10 06:57:08;;;;;;;1.27;1.00;;;21.60;69.10;;;;;;5044389;28;20037;-67
2022/09/10 06:59:34;;;;;;;1.52;1.00;;;21.60;69.10;;;;;;5045993;28;20719;-66
2022/09/10 07:02:01;;;;;;;1.58;1.00;;;21.60;69.00;;;;;;5046939;28;20627;-67
2022/09/10 07:04:27;;;;;;;2.03;1.20;;;21.60;69.00;;;;;;5045891;28;20029;-67
2022/09/10 07:06:53;;;;;;;2.17;1.00;;;21.60;69.10;;;;;;5043837;28;20111;-66
2022/09/10 07:09:18;;;;;;;2.10;0.98;;;21.60;69.10;;;;;;5048057;28;20552;-66
2022/09/10 07:11:44;;;;;;;1.58;1.10;;;21.60;68.90;;;;;;5045639;28;20033;-65
2022/09/10 07:14:11;;;;;;;3.38;1.38;;;21.60;69.00;;;;;;5042912;28;20013;-65
2022/09/10 07:16:40;;;;;;;4.63;1.60;;;21.60;68.20;;;;;;5046804;28;20037;-65
2022/09/10 07:19:06;;;;;;;8.10;2.08;;;21.40;67.00;;;;;;5044428;28;20064;-64
2022/09/10 07:21:35;;;;;;;8.40;1.70;;;21.30;65.60;;;;;;5047526;28;20021;-64
2022/09/10 07:24:01;;;;;;;8.48;1.70;;;21.30;66.10;;;;;;5052700;28;20021;-64
2022/09/10 07:26:27;;;;;;;9.00;2.10;;;21.20;66.00;;;;;;5047222;28;20059;-64
2022/09/10 07:28:52;;;;;;;8.80;1.83;;;21.20;65.90;;;;;;5039901;28;20029;-64
2022/09/10 07:31:22;;;;;;;11.38;2.50;;;21.10;66.10;;;;;;5044051;28;20041;-60
2022/09/10 07:33:48;;;;;;;8.27;1.90;;;21.10;66.40;;;;;;5045520;28;20039;-63
2022/09/10 07:36:14;;;;;;;8.68;2.22;;;21.10;66.40;;;;;;5041772;28;20363;-63
2022/09/10 07:38:40;;;;;;;8.50;1.90;;;21.10;66.20;;;;;;5047073;28;20024;-62
2022/09/10 07:41:08;;;;;;;10.23;1.92;;;21.00;66.20;;;;;;5045932;28;20103;-63
2022/09/10 07:43:34;;;;;;;11.40;2.00;;;21.00;66.30;;;;;;5042611;28;20035;-62
2022/09/10 07:45:59;;;;;;;8.50;2.05;;;21.10;66.50;;;;;;5022622;28;20021;-62
2022/09/10 07:48:26;;;;;;;7.93;1.90;;;21.00;66.50;;;;;;5041917;28;20032;-62
2022/09/10 07:50:52;;;;;;;11.55;2.10;;;20.90;66.70;;;;;;5044924;28;20056;-62
2022/09/10 07:53:18;;;;;;;9.05;2.10;;;20.90;66.70;;;;;;5044267;28;20032;-62
2022/09/10 07:55:44;;;;;;;7.47;1.88;;;20.90;66.90;;;;;;5043321;28;20418;-64
2022/09/10 07:58:09;;;;;;;10.13;1.98;;;20.90;66.80;;;;;;5047350;28;20021;-67
2022/09/10 08:00:35;;;;;;;11.15;1.85;;;21.00;67.00;;;;;;5046988;28;20181;-65
2022/09/10 08:03:02;;;;;;;10.65;1.90;;;21.00;67.00;;;;;;5047566;28;20036;-65
2022/09/10 08:05:27;;;;;;;7.15;2.25;;;21.00;67.00;;;;;;5045443;28;20033;-67
2022/09/10 08:07:53;;;;;;;7.82;1.85;;;21.00;67.10;;;;;;5046730;28;20511;-67
2022/09/10 08:10:19;;;;;;;7.43;2.10;;;20.90;67.00;;;;;;5046086;28;20091;-67
2022/09/10 08:12:44;;;;;;;9.38;1.83;;;20.90;67.10;;;;;;5044126;28;20037;-64
2022/09/10 08:15:10;;;;;;;10.63;2.03;;;20.90;67.20;;;;;;5042392;28;20059;-63
2022/09/10 08:17:36;;;;;;;9.52;1.83;;;20.90;67.40;;;;;;5045097;28;20028;-63
2022/09/10 08:20:07;;;;;;;5.88;1.63;;;21.00;67.30;;;;;;5044502;28;20082;-64
2022/09/10 08:22:33;;;;;;;5.32;1.70;;;21.00;67.00;;;;;;5050176;28;20134;-64
2022/09/10 08:24:59;;;;;;;10.32;2.17;;;21.00;67.10;;;;;;5042665;28;20033;-64
2022/09/10 08:27:25;;;;;;;7.35;1.75;;;21.00;67.20;;;;;;5045656;28;20053;-64
2022/09/10 08:29:52;;;;;;;7.25;1.70;;;21.10;67.40;;;;;;5044010;28;20049;-61
2022/09/10 08:32:17;;;;;;;6.70;1.83;;;21.00;67.30;;;;;;5042717;28;20140;-60
2022/09/10 08:34:43;;;;;;;8.13;1.70;;;21.10;67.30;;;;;;5046665;28;20100;-60
2022/09/10 08:37:09;;;;;;;7.18;1.50;;;21.20;67.20;;;;;;5042886;28;20036;-60
2022/09/10 08:39:35;;;;;;;10.18;1.75;;;21.20;67.10;;;;;;5043366;28;20051;-60
2022/09/10 08:42:04;;;;;;;7.32;1.60;;;21.30;67.00;;;;;;5044817;28;20090;-60
2022/09/10 08:44:40;;;;;;;7.93;1.73;;;21.30;67.00;;;;;;5026229;28;20040;-60
2022/09/10 08:47:09;;;;;;;4.10;1.40;;;21.40;67.00;;;;;;5043339;28;20025;-60
2022/09/10 08:49:41;;;;;;;4.22;1.10;;;21.30;66.80;;;;;;5045669;28;20100;-60
2022/09/10 08:52:33;;;;;;;12.45;2.08;;;21.40;66.90;;;;;;5042485;28;20513;-59
2022/09/10 08:55:17;;;;;;;6.55;1.90;;;21.40;66.90;;;;;;5030874;28;20039;-60
2022/09/10 08:57:49;;;;;;;6.50;1.48;;;21.40;66.80;;;;;;5044099;28;20025;-60
2022/09/10 09:00:22;;;;;;;6.88;1.67;;;21.40;66.70;;;;;;5024838;28;20543;-60
2022/09/10 09:03:01;;;;;;;9.93;2.20;;;21.40;66.70;;;;;;5049710;28;20116;-60
2022/09/10 09:05:27;;;;;;;7.85;1.75;;;21.40;66.60;;;;;;5041819;28;20115;-61
2022/09/10 09:07:53;;;;;;;7.50;1.85;;;21.40;66.70;;;;;;5046848;28;20552;-60
2022/09/10 09:10:25;;;;;;;7.30;1.65;;;21.50;66.80;;;;;;5028505;28;20025;-60
2022/09/10 09:13:15;;;;;;;11.18;1.60;;;21.50;66.90;;;;;;5043244;28;20072;-60
2022/09/10 09:16:02;;;;;;;6.30;1.70;;;21.50;66.90;;;;;;5047405;28;20017;-59
2022/09/10 09:18:49;;;;;;;10.52;1.98;;;21.50;66.90;;;;;;5026121;28;20024;-60
2022/09/10 09:21:44;;;;;;;11.23;1.95;;;21.50;66.90;;;;;;5026576;28;20120;-59
2022/09/10 09:24:47;;;;;;;10.75;2.00;;;21.60;67.10;;;;;;5035538;28;20076;-60
2022/09/10 09:27:18;;;;;;;8.98;1.63;;;21.60;67.00;;;;;;5026938;28;20505;-59
2022/09/10 09:30:06;;;;;;;7.57;1.90;;;21.70;67.00;;;;;;5043475;28;20033;-60
2022/09/10 09:32:38;;;;;;;9.45;2.03;;;21.70;67.80;;;;;;5047137;28;20037;-60
2022/09/10 09:35:22;;;;;;;9.38;2.17;;;21.70;67.70;;;;;;5027738;28;21036;-60
2022/09/10 09:37:49;;;;;;;7.13;1.85;;;21.80;67.80;;;;;;5048554;28;20024;-60
2022/09/10 09:40:36;;;;;;;8.13;2.03;;;21.80;67.80;;;;;;5023156;28;20017;-60
2022/09/10 09:43:12;;;;;;;8.20;1.95;;;21.80;67.80;;;;;;5044934;28;20037;-60
2022/09/10 09:45:38;;;;;;;8.80;1.73;;;21.70;67.00;;;;;;5022706;28;20056;-60
2022/09/10 09:48:15;;;;;;;6.93;1.80;;;21.70;66.50;;;;;;5039918;28;20021;-59
2022/09/10 09:50:45;;;;;;;9.05;1.73;;;21.70;65.10;;;;;;5019621;28;20524;-60
2022/09/10 09:53:27;;;;;;;20.25;4.25;;;21.70;66.70;;;;;;5022842;28;20473;-60
2022/09/10 09:56:09;;;;;;;17.30;2.90;;;21.70;66.30;;;;;;5042355;28;20029;-60
2022/09/10 09:58:36;;;;;;;18.25;3.08;;;21.70;67.50;;;;;;5042105;28;20017;-58
2022/09/10 10:01:04;;;;;;;19.23;3.60;;;21.70;66.20;;;;;;5022977;28;20086;-60
2022/09/10 10:03:31;;;;;;;23.70;3.50;;;21.70;66.40;;;;;;5043277;28;21506;-58
2022/09/10 10:06:04;;;;;;;21.20;3.33;;;21.70;66.30;;;;;;5021995;28;20041;-59
2022/09/10 10:08:33;;;;;;;16.13;3.03;;;21.70;65.00;;;;;;5043728;28;20021;-58
2022/09/10 10:10:58;;;;;;;10.45;2.00;;;21.70;66.30;;;;;;5024383;28;20029;-60
2022/09/10 10:13:24;;;;;;;17.02;1.92;;;21.70;64.10;;;;;;5025930;28;20052;-60
2022/09/10 10:15:50;;;;;;;11.95;2.25;;;21.70;64.20;;;;;;5026126;28;20505;-60
2022/09/10 10:18:21;;;;;;;10.52;2.33;;;21.70;64.30;;;;;;5043609;28;20063;-59
2022/09/10 10:21:11;;;;;;;13.02;2.38;;;21.70;65.00;;;;;;5042504;28;20529;-60
2022/09/10 10:23:37;;;;;;;10.80;2.13;;;21.70;65.10;;;;;;5024261;28;20041;-60
2022/09/10 10:26:19;;;;;;;10.75;1.95;;;21.70;64.70;;;;;;5043552;28;20056;-59
2022/09/10 10:28:52;;;;;;;8.82;1.85;;;21.70;65.10;;;;;;5042864;28;20033;-59
2022/09/10 10:31:18;;;;;;;8.60;1.65;;;21.80;64.90;;;;;;5025331;28;20404;-63
2022/09/10 10:33:53;;;;;;;10.48;2.05;;;21.70;63.90;;;;;;5027646;28;20033;-63
2022/09/10 10:36:34;;;;;;;11.55;1.80;;;21.80;65.00;;;;;;5010150;28;20101;-62
2022/09/10 10:39:18;;;;;;;8.45;1.80;;;21.80;65.10;;;;;;5009925;28;20036;-61
2022/09/10 10:41:57;;;;;;;10.32;3.15;;;21.90;65.10;;;;;;5016574;28;20055;-61
2022/09/10 10:44:35;;;;;;;8.95;2.50;;;22.00;65.20;;;;;;5045876;28;20017;-60
2022/09/10 10:47:36;;;;;;;9.02;2.22;;;22.00;65.00;;;;;;5045962;28;20078;-59
2022/09/10 10:50:14;;;;;;;9.70;2.28;;;22.00;65.00;;;;;;4946833;28;20042;-59
2022/09/10 10:53:36;;;;;;;7.38;2.20;;;22.10;65.00;;;;;;4934166;28;20413;-59
2022/09/10 10:56:31;;;;;;;11.48;2.17;;;22.10;65.00;;;;;;4889517;29;20133;-59
2022/09/10 10:59:17;;;;;;;9.63;1.95;;;22.10;64.90;;;;;;4877895;29;20033;-59
2022/09/10 11:01:59;;;;;;;8.60;2.13;;;22.20;64.90;;;;;;4892383;29;20036;-59
2022/09/10 11:04:39;;;;;;;7.32;2.40;;;22.20;64.70;;;;;;4873981;29;20044;-59
2022/09/10 11:07:12;;;;;;;8.13;1.83;;;22.30;64.60;;;;;;4890118;29;20097;-59
2022/09/10 11:09:55;;;;;;;6.77;1.87;;;22.30;64.70;;;;;;4889219;29;20391;-59
2022/09/10 11:12:30;;;;;;;7.32;1.80;;;22.30;64.60;;;;;;4888822;29;20072;-60
2022/09/10 11:15:09;;;;;;;7.78;1.83;;;22.40;64.50;;;;;;4871671;29;20064;-60
2022/09/10 11:17:39;;;;;;;7.60;1.83;;;22.40;64.40;;;;;;4870529;29;20445;-59
2022/09/10 11:20:18;;;;;;;7.85;1.75;;;22.40;64.10;;;;;;4888110;29;20108;-61
2022/09/10 11:22:54;;;;;;;6.78;1.90;;;22.40;64.10;;;;;;4891164;29;20044;-60
2022/09/10 11:25:29;;;;;;;6.85;1.90;;;22.30;64.10;;;;;;4921010;28;20469;-61
2022/09/10 11:28:00;;;;;;;8.35;1.90;;;22.30;63.80;;;;;;5027440;28;20028;-60
2022/09/10 11:30:26;;;;;;;8.85;1.83;;;22.20;63.50;;;;;;5031248;28;20082;-60
2022/09/10 11:33:10;;;;;;;6.45;1.67;;;22.20;63.80;;;;;;5025131;28;20029;-60
2022/09/10 11:35:44;;;;;;;5.03;1.47;;;22.20;63.90;;;;;;5025705;28;20021;-60
2022/09/10 11:38:19;;;;;;;8.55;1.73;;;22.30;63.30;;;;;;5030149;28;20032;-60
2022/09/10 11:40:58;;;;;;;5.38;1.55;;;22.20;62.60;;;;;;5028959;28;20056;-60
2022/09/10 11:43:41;;;;;;;7.57;1.70;;;22.30;63.20;;;;;;5031353;28;20485;-60
2022/09/10 11:46:15;;;;;;;6.00;1.70;;;22.30;63.00;;;;;;5025411;28;20029;-59
2022/09/10 11:48:42;;;;;;;;;;;22.30;63.10;;;;;;5028198;28;20028;-60
2022/09/10 11:51:19;;;;;;;7.35;1.95;;;22.30;63.00;;;;;;5024081;28;19917;-60
2022/09/10 11:53:44;;;;;;;10.18;1.98;;;22.30;63.00;;;;;;5044283;28;20114;-59
2022/09/10 11:56:13;;;;;;;8.30;1.83;;;22.30;62.70;;;;;;5044894;28;20096;-60
2022/09/10 11:58:54;;;;;;;9.70;2.08;;;22.20;62.60;;;;;;5043786;28;20035;-60
2022/09/10 12:01:31;;;;;;;7.55;2.10;;;22.20;62.60;;;;;;5043400;28;20025;-60
2022/09/10 12:04:16;;;;;;;9.68;1.85;;;22.30;62.50;;;;;;5043944;28;20082;-60
2022/09/10 12:06:54;;;;;;;8.20;1.50;;;22.30;62.50;;;;;;5045228;28;20056;-60
2022/09/10 12:09:40;;;;;;;5.88;1.38;;;22.30;62.30;;;;;;5044189;28;20028;-60
2022/09/10 12:12:14;;;;;;;8.20;2.00;;;22.30;62.40;;;;;;4996813;28;20488;-61
2022/09/10 12:14:40;;;;;;;6.60;1.60;;;22.30;62.50;;;;;;5022966;28;20033;-60
2022/09/10 12:17:22;;;;;;;7.63;1.48;;;22.30;62.40;;;;;;5028712;28;20115;-61
2022/09/10 12:19:54;;;;;;;9.18;1.77;;;22.40;62.60;;;;;;5014295;28;20037;-61
2022/09/10 12:22:26;;;;;;;6.43;1.50;;;22.40;62.60;;;;;;5013392;28;20620;-60
2022/09/10 12:25:06;;;;;;;9.65;1.70;;;22.50;62.80;;;;;;5009243;28;20581;-60
2022/09/10 12:27:42;;;;;;;5.78;1.40;;;22.60;62.40;;;;;;5021147;28;20512;-60
2022/09/10 12:30:27;;;;;;;5.95;1.40;;;22.70;62.30;;;;;;5038819;28;20065;-65
2022/09/10 12:32:59;;;;;;;6.10;1.50;;;22.80;62.30;;;;;;5042885;28;20037;-63
2022/09/10 12:35:33;;;;;;;10.27;1.55;;;22.70;62.10;;;;;;5044200;28;20029;-61
2022/09/10 12:38:36;;;;;;;7.85;1.45;;;22.80;62.30;;;;;;5044060;28;20119;-61
2022/09/10 12:41:03;;;;;;;6.25;1.10;;;22.80;61.90;;;;;;5023281;28;20059;-60
2022/09/10 12:43:38;;;;;;;4.30;1.30;;;22.90;61.90;;;;;;5054977;28;20106;-60
2022/09/10 12:46:13;;;;;;;3.72;1.35;;;22.80;61.10;;;;;;5047300;28;20490;-61
2022/09/10 12:48:40;;;;;;;;;;;22.90;61.50;;;;;;5042373;28;20037;-62
2022/09/10 12:51:15;;;;;;;5.75;1.55;;;22.90;61.40;;;;;;5041997;28;20373;-61
2022/09/10 12:53:55;;;;;;;6.72;1.40;;;23.00;61.00;;;;;;5025259;28;20036;-62
2022/09/10 12:56:43;;;;;;;5.63;1.20;;;23.00;59.80;;;;;;5022049;28;20041;-62
2022/09/10 12:59:33;;;;;;;5.82;1.15;;;23.00;60.20;;;;;;5027927;28;20451;-62
2022/09/10 13:01:59;;;;;;;7.05;1.30;;;23.00;60.60;;;;;;5037763;28;20071;-62
2022/09/10 13:04:31;;;;;;;6.45;1.30;;;23.10;60.30;;;;;;5036686;28;20432;-62
2022/09/10 13:07:19;;;;;;;5.57;1.50;;;23.00;59.30;;;;;;5023856;28;20037;-62